• Join FlightAware (Why Join?)
  • Login
  • US Flag 
01:52AM EDT


 

Airport Tracker/Info


-or-


 

Live Flight TrackerFlight Track Log ✈ SWA3121 ✈ 30-Apr-2013 ✈ KMCO - KHOU

Flight Track Log - Related Links

Times and Time Zones

All times are in EDT time to prevent confusion due to time zone crossing. See the SWA3121 flight status page for this flight to view local times or setup timezone preferences in your user account.

Time Position Orientation Groundspeed Altitude Reporting Facility
EDT Latitude Longitude Course Direction KTS MPH feet Rate Location/Type
08:08PM 28.4000 -81.3000 221° Southwest 156 180 700  Level Orlando TRACON
08:09PM 28.3667 -81.3333 221° Southwest 222 255 2,700 2,700 Climbing Orlando TRACON
08:10PM 28.3500 -81.4000 254° West 242 278 6,100 3,060 Climbing Orlando TRACON
08:12PM 28.3372 -81.5767 265° West 274 315 12,100 3,180 Climbing Jacksonville Center
08:14PM 28.3744 -81.7647 283° West 302 348 19,300 2,940 Climbing Jacksonville Center
08:15PM 28.3983 -81.8661 285° West 320 368 21,000 2,100 Climbing Jacksonville Center
08:16PM 28.4431 -81.9883 293° West 345 397 23,600 2,220 Climbing Jacksonville Center
08:17PM 28.4814 -82.0825 295° West 371 427 25,500 1,440 Climbing Jacksonville Center
08:18PM 28.4381 -82.2008 247° West 366 421 26,500 1,440 Climbing Jacksonville Center
08:19PM 28.3928 -82.3261 248° West 391 450 28,400 1,920 Climbing Jacksonville Center
08:20PM 28.3494 -82.4561 249° West 424 488 30,400 1,980 Climbing Jacksonville Center
08:22PM 28.2703 -82.6783 248° West 429 494 34,000 1,920 Climbing Miami Center
08:23PM 28.2258 -82.7961 247° West 422 486 35,900 960 Climbing Miami Center
08:24PM 28.1831 -82.9186 248° West 422 486 36,000  Climbing Miami Center
08:25PM 28.1408 -83.0339 247° West 417 480 36,000  Level Miami Center
08:26PM 28.0956 -83.1583 248° West 417 480 36,000 480 Level Miami Center
08:27PM 28.0550 -83.2761 249° West 417 480 37,000 960 Climbing Miami Center
08:28PM 28.0119 -83.3981 248° West 417 480 38,000 480 Climbing Miami Center
08:29PM 27.9936 -83.5239 261° West 422 486 38,000  Level Miami Center
08:31PM 28.0178 -83.7225 278° West 389 448 38,000  Level Jacksonville Center
08:32PM 28.0461 -83.8472 284° West 401 461 38,000  Level Jacksonville Center
08:33PM 28.0683 -83.9722 281° West 406 467 38,000  Level Jacksonville Center
08:34PM 28.0922 -84.0947 282° West 412 474 38,000  Level Jacksonville Center
08:35PM 28.1181 -84.2175 283° West 412 474 38,000  Level Jacksonville Center
08:36PM 28.1397 -84.3400 281° West 412 474 38,000  Level Jacksonville Center
08:37PM 28.1653 -84.4722 282° West 407 468 38,000  Level Jacksonville Center
08:38PM 28.1719 -84.6042 273° West 412 474 38,000  Level Jacksonville Center
08:39PM 28.1831 -84.7150 277° West 398 458 38,000  Level Jacksonville Center
08:40PM 28.1894 -84.8472 273° West 392 451 38,000  Level Jacksonville Center
08:41PM 28.2000 -84.9675 276° West 392 451 38,000  Level Jacksonville Center
08:42PM 28.2106 -85.0878 276° West 397 457 38,000  Level Jacksonville Center
08:43PM 28.2186 -85.2150 274° West 397 457 38,000  Level Jacksonville Center
08:44PM 28.2269 -85.3356 275° West 404 465 38,000  Level Jacksonville Center
08:45PM 28.2347 -85.4653 274° West 404 465 38,000  Level Jacksonville Center
08:46PM 28.2447 -85.5928 275° West 404 465 38,000  Level Jacksonville Center
08:47PM 28.2903 -85.7022 295° West 388 447 38,000  Level Jacksonville Center
08:48PM 28.3464 -85.8147 300° West 405 466 38,000  Level Jacksonville Center
08:49PM 28.4019 -85.9272 299° West 405 466 38,000  Level Jacksonville Center
08:50PM 28.4578 -86.0397 299° West 410 472 38,000  Level Jacksonville Center
08:51PM 28.5133 -86.1503 300° West 405 466 38,000  Level Jacksonville Center
08:52PM 28.5375 -86.2714 283° West 399 459 38,000  Level Jacksonville Center
08:53PM 28.5592 -86.3950 281° West 392 451 38,000  Level Jacksonville Center
08:54PM 28.5808 -86.5189 281° West 397 457 38,000  Level Jacksonville Center
08:55PM 28.6042 -86.6450 282° West 403 464 38,000  Level Jacksonville Center
08:56PM 28.6278 -86.7689 282° West 403 464 38,000  Level Jacksonville Center
08:57PM 28.6492 -86.8878 282° West 398 458 38,000  Level Jacksonville Center
08:58PM 28.6703 -87.0117 281° West 398 458 38,000  Level Jacksonville Center
08:59PM 28.6914 -87.1333 281° West 392 451 38,000  Level Jacksonville Center
09:00PM 28.7144 -87.2550 282° West 392 451 38,000  Level Jacksonville Center
09:01PM 28.7331 -87.3789 280° West 397 457 38,000  Level Jacksonville Center
09:02PM 28.7553 -87.5017 282° West 399 459 38,000  Level Houston Center
09:03PM 28.7775 -87.6272 281° West 403 464 38,000  Level Houston Center
09:04PM 28.7986 -87.7525 281° West 404 465 38,000  Level Houston Center
09:05PM 28.8192 -87.8792 281° West 407 468 38,000  Level Houston Center
09:06PM 28.8406 -88.0039 281° West 402 463 38,000  Level Houston Center
09:07PM 28.8644 -88.1472 281° West 409 471 38,000  Level Houston Center
09:08PM 28.8853 -88.2733 281° West 406 467 38,000  Level Houston Center
09:09PM 28.9056 -88.3994 280° West 406 467 38,000  Level Houston Center
09:10PM 28.9267 -88.5256 281° West 405 466 38,000  Level Houston Center
09:11PM 28.9464 -88.6517 280° West 405 466 38,000  Level Houston Center
09:12PM 28.9675 -88.7792 281° West 407 468 38,000  Level Houston Center
09:13PM 28.9881 -88.9047 281° West 405 466 38,000  Level Houston Center
09:14PM 29.0083 -89.0336 280° West 410 472 38,000  Level Houston Center
09:15PM 29.0278 -89.1611 280° West 408 470 38,000  Level Houston Center
09:16PM 29.0483 -89.2867 281° West 406 467 38,000  Level Houston Center
09:17PM 29.0681 -89.4128 280° West 404 465 38,000  Level Houston Center
09:18PM 29.0925 -89.5664 280° West 409 471 38,000  Level Houston Center
09:19PM 29.1125 -89.6967 280° West 412 474 38,000  Level Houston Center
09:20PM 29.1319 -89.8261 280° West 414 476 38,000  Level Houston Center
09:21PM 29.1519 -89.9567 280° West 416 479 38,000  Level Houston Center
09:22PM 29.1722 -90.0883 280° West 421 484 38,000  Level Houston Center
09:23PM 29.1786 -90.2214 273° West 418 481 38,000  Level Houston Center
09:24PM 29.1839 -90.3528 273° West 415 478 38,000  Level Houston Center
09:25PM 29.1878 -90.4836 272° West 414 476 38,000  Level Houston Center
09:26PM 29.1917 -90.6150 272° West 413 475 38,000  Level Houston Center
09:27PM 29.1961 -90.7472 272° West 415 478 38,000  Level Houston Center
09:28PM 29.2017 -90.8789 273° West 416 479 38,000  Level Houston Center
09:29PM 29.2058 -91.0111 272° West 418 481 38,000  Level Houston Center
09:30PM 29.2108 -91.1692 272° West 417 480 38,000  Level Houston Center
09:31PM 29.2142 -91.3014 272° West 419 482 38,000  Level Houston Center
09:32PM 29.2189 -91.4328 272° West 416 479 38,000  Level Houston Center
09:33PM 29.2214 -91.5664 271° West 420 483 38,000  Level Houston Center
09:34PM 29.2247 -91.6997 272° West 423 487 38,000  Level Houston Center
09:35PM 29.2281 -91.8333 272° West 427 491 38,000  Level Houston Center
09:36PM 29.2314 -91.9683 272° West 427 491 38,000  Level Houston Center
09:37PM 29.2350 -92.1033 272° West 427 491 38,000  Level Houston Center
09:38PM 29.2378 -92.2392 271° West 427 491 38,000  Level Houston Center
09:40PM 29.2411 -92.3744 272° West 426 490 38,000  Level Houston Center
09:41PM 29.2433 -92.5353 271° West 422 486 38,000  Level Houston Center
09:42PM 29.2467 -92.6686 272° West 419 482 38,000  Level Houston Center
09:43PM 29.2494 -92.8031 271° West 423 487 38,000  Level Houston Center
09:44PM 29.2522 -92.9361 271° West 420 483 38,000 -1,080 Level Houston Center
09:45PM 29.2525 -93.0697 270° West 419 482 35,900 -2,460 Descending Houston Center
09:46PM 29.2550 -93.2025 271° West 418 481 33,000 -2,700 Descending Houston Center
09:47PM 29.2572 -93.3369 271° West 420 483 30,500 -2,280 Descending Houston Center
09:48PM 29.2597 -93.4686 271° West 418 481 28,400 -2,040 Descending Houston Center
09:49PM 29.2608 -93.5942 271° West 406 467 26,400 -2,040 Descending Houston Center
09:50PM 29.2619 -93.7172 271° West 397 457 24,300 -2,040 Descending Houston Center
09:51PM 29.2633 -93.8394 271° West 391 450 22,300 -1,920 Descending Houston Center
09:52PM 29.2647 -93.9514 271° West 377 434 20,400 -1,920 Descending Houston Center
09:53PM 29.2667 -94.0639 271° West 364 419 18,500 -2,160 Descending Houston Center
09:54PM 29.2669 -94.1969 270° West 355 409 16,100 -2,100 Descending Houston Center
09:55PM 29.2650 -94.3225 269° West 333 383 14,000 -1,800 Descending Houston Center
09:56PM 29.2669 -94.4061 272° West 332 382 12,500 -1,080 Descending Houston Center
09:57PM 29.2753 -94.5014 276° West 308 354 12,000 -840 Descending Houston Center
09:58PM 29.3153 -94.5822 300° West 292 336 10,800 -1,320 Descending Houston Center
09:59PM 29.3553 -94.6639 299° West 293 337 9,400 -1,380 Descending Houston Center
10:00PM 29.4003 -94.7561 299° West 284 327 8,000 -720 Descending Houston Center
10:01PM 29.4331 -94.8206 300° West 282 325 8,000  Level Houston Center
10:02PM 29.4714 -94.8983 300° West 281 323 8,000  Level Houston Center
10:03PM 29.5097 -94.9775 299° West 282 325 8,000 -300 Level Houston Center
10:04PM 29.5514 -95.0639 299° West 282 325 7,500 -1,020 Descending Houston Center
10:05PM 29.5861 -95.1356 299° West 284 327 6,000 -720 Descending Houston Center
10:06PM 29.6067 -95.2211 285° West 265 305 6,000  Level Houston Center
10:07PM 29.6169 -95.3033 278° West 259 298 6,000 -360 Level Houston Center
10:08PM 29.6433 -95.3747 293° West 221 254 5,300 -1,140 Descending Houston Center
10:09PM 29.6878 -95.4181 320° Northwest 225 259 3,800 -1,500 Descending Houston Center
10:10PM 29.7044 -95.3553 73° East 156 180 2,000 -1,200 Descending Houston Center
10:12PM 29.6544 -95.2917 132° Southeast 132 152 300 -900 Descending Houston Center